createdAt,value
2019-04-04T00:02:56.348Z,0
2019-04-04T00:08:25.416Z,0
2019-04-04T00:13:56.338Z,0
2019-04-04T00:19:27.796Z,0
2019-04-04T00:24:57.962Z,0
2019-04-04T00:30:28.879Z,0
2019-04-04T00:36:00.620Z,0.1
2019-04-04T00:41:30.546Z,0.1
2019-04-04T00:47:01.671Z,0
2019-04-04T00:52:32.213Z,0.1
2019-04-04T00:58:03.094Z,0.2
2019-04-04T01:03:33.900Z,0.2
2019-04-04T01:09:04.830Z,0.1
2019-04-04T01:14:35.607Z,0.1
2019-04-04T01:20:06.522Z,0.2
2019-04-04T01:25:37.293Z,0.1
2019-04-04T01:31:08.193Z,0.1
2019-04-04T01:36:39.050Z,0.1
2019-04-04T01:42:09.950Z,0.2
2019-04-04T01:47:40.736Z,0.1
2019-04-04T01:53:11.623Z,0.1
2019-04-04T01:58:42.490Z,0.2
2019-04-04T02:04:13.342Z,0.1
2019-04-04T02:09:44.161Z,0.2
2019-04-04T02:15:15.164Z,0.2
2019-04-04T02:20:45.904Z,0.3
2019-04-04T02:26:16.803Z,0.3
2019-04-04T02:31:47.625Z,0.2
2019-04-04T02:37:20.460Z,0.3
2019-04-04T02:42:53.892Z,0.3
2019-04-04T02:48:23.120Z,0.4
2019-04-04T02:53:52.844Z,0.3
2019-04-04T02:59:22.206Z,0.2
2019-04-04T03:04:52.743Z,0.2
2019-04-04T03:10:23.669Z,0.1
2019-04-04T03:15:54.443Z,0.1
2019-04-04T03:21:25.338Z,0.2
2019-04-04T03:26:56.230Z,0.3
2019-04-04T03:32:27.020Z,0.4
2019-04-04T03:37:57.893Z,0.4
2019-04-04T03:43:28.673Z,0.4
2019-04-04T03:48:59.547Z,0.4
2019-04-04T03:54:30.416Z,0.2
2019-04-04T04:00:05.493Z,0
2019-04-04T04:05:35.377Z,0.1
2019-04-04T04:11:05.733Z,0.1
2019-04-04T04:16:35.817Z,0.2
2019-04-04T04:22:04.644Z,0.4
2019-04-04T04:27:35.451Z,0.4
2019-04-04T04:33:06.461Z,0.2
2019-04-04T04:38:37.323Z,0.2
2019-04-04T04:44:08.091Z,0.1
2019-04-04T04:49:38.971Z,0.2
2019-04-04T04:55:11.935Z,0.2
2019-04-04T05:00:40.620Z,0.1
2019-04-04T05:06:11.505Z,0.1
2019-04-04T05:11:42.324Z,0.1
2019-04-04T05:17:13.118Z,0.1
2019-04-04T05:22:44.023Z,0.1
2019-04-04T05:28:14.841Z,0
2019-04-04T05:33:45.668Z,0
2019-04-04T05:39:17.990Z,0
2019-04-04T05:44:47.349Z,0.1
2019-04-04T05:50:18.184Z,0.3
2019-04-04T05:55:49.012Z,0.2
2019-04-04T06:01:19.879Z,0.1
2019-04-04T06:06:50.787Z,0.2
2019-04-04T06:12:22.933Z,0.2
2019-04-04T06:17:52.524Z,0.3
2019-04-04T06:23:25.017Z,0.3
2019-04-04T06:28:54.318Z,0.4
2019-04-04T06:34:25.143Z,0.4
2019-04-04T06:39:58.366Z,0.4
2019-04-04T06:45:29.557Z,0.4
2019-04-04T06:50:57.868Z,0.4
2019-04-04T06:56:31.729Z,0.4
2019-04-04T07:01:59.663Z,0.5
2019-04-04T07:07:30.576Z,0.5
2019-04-04T07:13:14.726Z,0.4
2019-04-04T07:18:32.442Z,0.4
2019-04-04T07:24:03.289Z,0.3
2019-04-04T07:29:34.222Z,0.4
2019-04-04T07:35:05.077Z,0.3
2019-04-04T07:40:36.989Z,0.3
2019-04-04T07:46:15.946Z,0.2
2019-04-04T07:51:38.681Z,0.3
2019-04-04T07:57:08.615Z,0.4
2019-04-04T08:02:39.501Z,0.5
2019-04-04T08:08:10.441Z,0.7
2019-04-04T08:13:41.313Z,0.7
2019-04-04T08:19:12.261Z,0.5
2019-04-04T08:24:43.249Z,0.5
2019-04-04T08:30:14.149Z,0.5
2019-04-04T08:35:45.045Z,0.4
2019-04-04T08:41:16.003Z,0.4
2019-04-04T08:46:47.125Z,0.5
2019-04-04T08:52:20.614Z,0.6
2019-04-04T08:57:48.928Z,0.6
2019-04-04T09:03:20.640Z,0.6
2019-04-04T09:08:50.834Z,0.6
2019-04-04T09:14:21.826Z,0.6
2019-04-04T09:19:52.749Z,0.7
2019-04-04T09:25:23.757Z,0.8
2019-04-04T09:30:54.898Z,0.7
2019-04-04T09:36:25.771Z,0.7
2019-04-04T09:41:56.910Z,0.8
2019-04-04T09:47:28.088Z,0.8
2019-04-04T09:52:59.506Z,0.9
2019-04-04T09:58:30.602Z,0.9
2019-04-04T10:04:01.669Z,1
2019-04-04T10:09:32.954Z,1
2019-04-04T10:15:04.068Z,0.9
2019-04-04T10:20:35.821Z,1
2019-04-04T10:25:58.503Z,1
2019-04-04T10:31:22.247Z,1.1
2019-04-04T10:36:52.451Z,1.1
2019-04-04T10:42:23.856Z,1.1
2019-04-04T10:47:46.783Z,1.1
2019-04-04T10:53:18.023Z,1.3
2019-04-04T10:58:44.337Z,1.2
2019-04-04T11:04:09.201Z,1.1
2019-04-04T11:09:41.593Z,1.1
2019-04-04T11:15:02.229Z,1.1
2019-04-04T11:20:28.488Z,1.1
2019-04-04T11:26:00.214Z,1.1
2019-04-04T11:31:24.850Z,1.2
2019-04-04T11:36:56.675Z,1.2
2019-04-04T11:42:28.361Z,1.3
2019-04-04T11:47:53.676Z,1.5
2019-04-04T11:53:23.845Z,1.4
2019-04-04T11:58:55.587Z,1.4
2019-04-04T12:04:27.154Z,1.6
2019-04-04T12:10:07.044Z,1.6
2019-04-04T12:15:25.011Z,1.6
2019-04-04T12:20:56.173Z,1.7
2019-04-04T12:26:27.472Z,1.9
2019-04-04T12:31:51.666Z,1.8
2019-04-04T12:37:15.255Z,1.8
2019-04-04T12:42:47.084Z,1.7
2019-04-04T12:48:18.130Z,1.8
2019-04-04T12:53:42.022Z,1.9
2019-04-04T12:59:13.625Z,1.8
2019-04-04T13:04:45.491Z,1.8
2019-04-04T13:10:16.789Z,1.8
2019-04-04T13:15:48.538Z,1.8
2019-04-04T13:21:21.554Z,1.8
2019-04-04T13:26:51.903Z,1.8
2019-04-04T13:32:14.875Z,1.9
2019-04-04T13:37:46.410Z,1.9
2019-04-04T13:43:18.170Z,1.8
2019-04-04T13:48:43.494Z,1.8
2019-04-04T13:54:14.342Z,2
2019-04-04T13:59:39.396Z,2.1
2019-04-04T14:05:09.474Z,2.1
2019-04-04T14:10:27.994Z,2.1
2019-04-04T14:15:59.182Z,2.1
2019-04-04T14:21:23.022Z,2
2019-04-04T14:26:46.527Z,2
2019-04-04T14:32:17.584Z,2.1
2019-04-04T14:37:40.400Z,2.2
2019-04-04T14:43:11.478Z,2.2
2019-04-04T14:48:35.095Z,2.1
2019-04-04T14:54:06.231Z,2.1
2019-04-04T14:59:28.969Z,2.1
2019-04-04T15:05:00.059Z,2
2019-04-04T15:10:25.503Z,2
2019-04-04T15:15:56.538Z,2.1
2019-04-04T15:21:23.277Z,2.2
2019-04-04T15:26:54.411Z,2.2
2019-04-04T15:32:18.527Z,2.2
2019-04-04T15:37:49.607Z,2.2
2019-04-04T15:43:13.398Z,2.2
2019-04-04T15:48:44.481Z,2.1
2019-04-04T15:54:10.765Z,2
2019-04-04T15:59:41.957Z,2.1
2019-04-04T16:05:07.008Z,2.2
2019-04-04T16:10:38.122Z,2.2
2019-04-04T16:16:09.059Z,2.2
2019-04-04T16:21:35.712Z,2.1
2019-04-04T16:27:06.803Z,2.2
2019-04-04T16:32:37.827Z,2.2
2019-04-04T16:38:03.611Z,2.2
2019-04-04T16:43:34.725Z,2.2
2019-04-04T16:49:05.772Z,2.1
2019-04-04T16:54:29.646Z,2.1
2019-04-04T17:00:00.654Z,2
2019-04-04T17:05:23.883Z,2
2019-04-04T17:10:54.869Z,2
2019-04-04T17:16:25.877Z,1.9
2019-04-04T17:21:56.818Z,1.9
2019-04-04T17:27:22.463Z,1.7
2019-04-04T17:32:53.471Z,1.7
2019-04-04T17:38:24.361Z,1.5
2019-04-04T17:43:47.368Z,1.3
2019-04-04T17:49:18.076Z,1.3
2019-04-04T17:54:49.140Z,1.3
2019-04-04T18:00:19.946Z,1.2
2019-04-04T18:05:50.938Z,1.2
2019-04-04T18:11:15.766Z,1.2
2019-04-04T18:16:46.681Z,1.2
2019-04-04T18:22:20.577Z,1.2
2019-04-04T18:27:48.535Z,1.3
2019-04-04T18:33:19.928Z,1.3
2019-04-04T18:38:50.419Z,1.2
2019-04-04T18:44:13.853Z,1.2
2019-04-04T18:49:44.679Z,1.1
2019-04-04T18:55:19.801Z,1.1
2019-04-04T19:00:46.574Z,1.3
2019-04-04T19:06:17.490Z,1.2
2019-04-04T19:11:48.415Z,1.2
2019-04-04T19:17:19.321Z,1.2
2019-04-04T19:22:50.224Z,1.2
2019-04-04T19:28:21.148Z,1.3
2019-04-04T19:33:52.071Z,1.3
2019-04-04T19:39:22.936Z,1.3
2019-04-04T19:44:53.355Z,1.3
2019-04-04T19:50:19.810Z,1.3
2019-04-04T19:55:51.250Z,1.3
2019-04-04T20:01:21.641Z,1.2
2019-04-04T20:06:52.468Z,1.2
2019-04-04T20:12:23.353Z,1.3
2019-04-04T20:17:54.273Z,1.2
2019-04-04T20:23:25.179Z,1.2
2019-04-04T20:28:56.107Z,1.2
2019-04-04T20:34:26.908Z,1.1
2019-04-04T20:39:57.781Z,1.1
2019-04-04T20:45:28.619Z,0.8
2019-04-04T20:50:59.433Z,0.5
2019-04-04T20:56:31.034Z,0.6
2019-04-04T21:02:02.675Z,0.8
2019-04-04T21:07:34.281Z,0.9
2019-04-04T21:13:05.518Z,0.7
2019-04-04T21:18:36.310Z,0.8
2019-04-04T21:24:07.115Z,0.7
2019-04-04T21:29:37.859Z,0.5
2019-04-04T21:35:08.643Z,0.5
2019-04-04T21:40:39.434Z,0.6
2019-04-04T21:46:10.209Z,0.6
2019-04-04T21:51:40.946Z,0.4
2019-04-04T21:57:11.663Z,0
2019-04-04T22:02:42.504Z,0.3
2019-04-04T22:08:13.176Z,0.4
2019-04-04T22:13:43.974Z,0.3
2019-04-04T22:19:14.803Z,0.3
2019-04-04T22:24:45.570Z,0.4
2019-04-04T22:30:16.872Z,0.1
2019-04-04T22:35:48.409Z,0
2019-04-04T22:41:20.038Z,0
2019-04-04T22:46:51.747Z,-0.3
2019-04-04T22:52:23.383Z,-0.4
2019-04-04T22:57:54.954Z,-0.4
2019-04-04T23:03:28.438Z,-0.3
2019-04-04T23:08:58.092Z,-0.3
2019-04-04T23:14:29.717Z,-0.3
2019-04-04T23:20:01.300Z,-0.3
2019-04-04T23:25:32.898Z,-0.3
2019-04-04T23:31:04.410Z,-0.3
2019-04-04T23:36:36.070Z,-0.1
2019-04-04T23:42:07.348Z,-0.2
2019-04-04T23:47:42.945Z,-0.2
2019-04-04T23:53:08.902Z,-0.1
2019-04-04T23:58:40.208Z,-0.1
